Terminal Aerodrome Forecast
Issued by NWS Brownsville, TX

Home | Current Version | Previous Version | Text Only | Print | Product List | Glossary On
Versions: 1 2 3 4 5 6 7 8 9 10 11
000
FTUS44 KBRO 121122
TAFMFE
TAF
KMFE 121122Z 1212/1312 00000KT P6SM OVC250
     FM121400 33005KT P6SM OVC250
     FM121700 35012G20KT P6SM SCT250
     FM130000 36005KT P6SM SCT250=

USA.gov is the U.S. government's official web portal to all federal, state and local government web resources and services.